sensor_id;sensor_type;location;lat;lon;timestamp;pressure;altitude;pressure_sealevel;temperature;humidity
6134;BME280;3098;42.678;23.364;2023-04-08T00:00:48;94958.13;;;4.72;91.64
6134;BME280;3098;42.678;23.364;2023-04-08T00:03:15;94923.59;;;4.39;92.42
6134;BME280;3098;42.678;23.364;2023-04-08T00:05:42;94689.53;;;2.89;92.31
6134;BME280;3098;42.678;23.364;2023-04-08T00:08:11;94993.25;;;4.96;92.48
6134;BME280;3098;42.678;23.364;2023-04-08T00:10:38;94893.94;;;4.39;92.07
6134;BME280;3098;42.678;23.364;2023-04-08T00:13:05;95002.69;;;5.02;92.31
6134;BME280;3098;42.678;23.364;2023-04-08T00:15:32;94999.06;;;4.93;92.67
6134;BME280;3098;42.678;23.364;2023-04-08T00:17:59;94991.47;;;4.86;93.47
6134;BME280;3098;42.678;23.364;2023-04-08T00:20:26;94955.81;;;4.60;93.42
6134;BME280;3098;42.678;23.364;2023-04-08T00:22:53;94990.72;;;4.76;93.06
6134;BME280;3098;42.678;23.364;2023-04-08T00:25:22;94993.63;;;4.69;93.12
6134;BME280;3098;42.678;23.364;2023-04-08T00:27:49;94991.00;;;4.64;93.43
6134;BME280;3098;42.678;23.364;2023-04-08T00:30:16;94990.78;;;4.55;94.33
6134;BME280;3098;42.678;23.364;2023-04-08T00:32:43;94993.91;;;4.57;94.93
6134;BME280;3098;42.678;23.364;2023-04-08T00:35:10;94942.00;;;4.39;94.79
6134;BME280;3098;42.678;23.364;2023-04-08T00:37:39;94957.72;;;4.44;95.08
6134;BME280;3098;42.678;23.364;2023-04-08T00:40:07;94998.69;;;4.50;94.68
6134;BME280;3098;42.678;23.364;2023-04-08T00:42:35;95007.31;;;4.61;94.78
6134;BME280;3098;42.678;23.364;2023-04-08T00:45:03;94970.88;;;4.29;94.58
6134;BME280;3098;42.678;23.364;2023-04-08T00:47:30;94999.50;;;4.31;95.25
6134;BME280;3098;42.678;23.364;2023-04-08T00:49:57;94919.28;;;3.84;95.52
6134;BME280;3098;42.678;23.364;2023-04-08T00:52:24;95003.69;;;4.42;95.96
6134;BME280;3098;42.678;23.364;2023-04-08T00:54:51;94989.28;;;4.24;96.71
6134;BME280;3098;42.678;23.364;2023-04-08T00:57:18;94965.66;;;4.09;97.48
6134;BME280;3098;42.678;23.364;2023-04-08T00:59:47;95008.13;;;4.46;97.58
6134;BME280;3098;42.678;23.364;2023-04-08T01:02:20;95005.53;;;4.41;97.24
6134;BME280;3098;42.678;23.364;2023-04-08T01:05:01;94978.00;;;4.19;98.18
6134;BME280;3098;42.678;23.364;2023-04-08T01:07:31;95013.16;;;4.33;98.18
6134;BME280;3098;42.678;23.364;2023-04-08T01:10:02;94934.50;;;3.87;98.01
6134;BME280;3098;42.678;23.364;2023-04-08T01:12:31;95007.94;;;4.23;98.43
6134;BME280;3098;42.678;23.364;2023-04-08T01:15:04;94925.59;;;3.63;98.38
6134;BME280;3098;42.678;23.364;2023-04-08T01:17:32;94949.44;;;3.92;98.75
6134;BME280;3098;42.678;23.364;2023-04-08T01:20:01;94989.84;;;4.11;98.68
6134;BME280;3098;42.678;23.364;2023-04-08T01:22:40;94971.19;;;4.07;98.47
6134;BME280;3098;42.678;23.364;2023-04-08T01:25:15;95005.53;;;4.26;98.42
6134;BME280;3098;42.678;23.364;2023-04-08T01:27:44;94936.06;;;3.78;98.90
6134;BME280;3098;42.678;23.364;2023-04-08T01:30:14;94922.16;;;3.73;98.88
6134;BME280;3098;42.678;23.364;2023-04-08T01:32:43;94993.75;;;4.24;98.76
6134;BME280;3098;42.678;23.364;2023-04-08T01:35:11;94886.78;;;3.65;98.69
6134;BME280;3098;42.678;23.364;2023-04-08T01:37:41;94951.25;;;4.01;98.96
6134;BME280;3098;42.678;23.364;2023-04-08T01:40:09;94991.38;;;4.27;98.76
6134;BME280;3098;42.678;23.364;2023-04-08T01:42:37;94948.13;;;3.99;98.41
6134;BME280;3098;42.678;23.364;2023-04-08T01:45:08;95008.66;;;4.43;98.55
6134;BME280;3098;42.678;23.364;2023-04-08T01:47:37;95018.13;;;4.44;98.68
6134;BME280;3098;42.678;23.364;2023-04-08T01:50:06;95018.13;;;4.34;98.65
6134;BME280;3098;42.678;23.364;2023-04-08T01:52:36;95014.22;;;4.37;98.76
6134;BME280;3098;42.678;23.364;2023-04-08T01:55:05;95013.69;;;4.40;98.87
6134;BME280;3098;42.678;23.364;2023-04-08T01:57:34;94952.31;;;4.00;98.98
6134;BME280;3098;42.678;23.364;2023-04-08T02:00:08;94874.22;;;3.37;98.23
6134;BME280;3098;42.678;23.364;2023-04-08T02:02:37;94981.41;;;4.19;98.11
6134;BME280;3098;42.678;23.364;2023-04-08T02:05:05;94927.91;;;3.95;97.52
6134;BME280;3098;42.678;23.364;2023-04-08T02:07:32;95025.44;;;4.57;96.87
6134;BME280;3098;42.678;23.364;2023-04-08T02:09:59;94981.69;;;4.23;96.88
6134;BME280;3098;42.678;23.364;2023-04-08T02:12:27;94941.28;;;4.09;97.08
6134;BME280;3098;42.678;23.364;2023-04-08T02:14:54;95036.72;;;4.68;96.59
6134;BME280;3098;42.678;23.364;2023-04-08T02:17:27;95032.00;;;4.60;96.43
6134;BME280;3098;42.678;23.364;2023-04-08T02:20:02;94975.41;;;3.98;96.50
6134;BME280;3098;42.678;23.364;2023-04-08T02:22:37;95023.13;;;4.36;97.47
6134;BME280;3098;42.678;23.364;2023-04-08T02:25:08;95039.66;;;4.56;97.30
6134;BME280;3098;42.678;23.364;2023-04-08T02:27:38;95047.78;;;4.55;96.89
6134;BME280;3098;42.678;23.364;2023-04-08T02:30:07;94953.63;;;3.98;96.57
6134;BME280;3098;42.678;23.364;2023-04-08T02:32:37;94979.06;;;4.13;96.76
6134;BME280;3098;42.678;23.364;2023-04-08T02:35:05;94973.84;;;4.02;96.53
6134;BME280;3098;42.678;23.364;2023-04-08T02:37:34;95035.72;;;4.39;97.22
6134;BME280;3098;42.678;23.364;2023-04-08T02:40:01;94873.16;;;3.38;96.69
6134;BME280;3098;42.678;23.364;2023-04-08T02:42:28;94918.75;;;3.67;97.10
6134;BME280;3098;42.678;23.364;2023-04-08T02:44:56;95037.59;;;4.33;98.32
6134;BME280;3098;42.678;23.364;2023-04-08T02:47:23;94905.13;;;3.35;100.00
6134;BME280;3098;42.678;23.364;2023-04-08T02:49:51;94939.75;;;3.77;99.86
6134;BME280;3098;42.678;23.364;2023-04-08T02:52:20;94954.41;;;3.83;100.00
6134;BME280;3098;42.678;23.364;2023-04-08T02:54:47;94958.09;;;3.72;100.00
6134;BME280;3098;42.678;23.364;2023-04-08T02:57:14;94960.19;;;3.75;100.00
6134;BME280;3098;42.678;23.364;2023-04-08T02:59:41;95012.41;;;4.07;100.00
6134;BME280;3098;42.678;23.364;2023-04-08T03:02:08;94976.22;;;3.74;100.00
6134;BME280;3098;42.678;23.364;2023-04-08T03:04:35;94982.50;;;3.78;100.00
6134;BME280;3098;42.678;23.364;2023-04-08T03:07:04;95013.72;;;4.20;100.00
6134;BME280;3098;42.678;23.364;2023-04-08T03:09:31;94995.09;;;3.96;100.00
6134;BME280;3098;42.678;23.364;2023-04-08T03:11:58;95042.31;;;4.21;100.00
6134;BME280;3098;42.678;23.364;2023-04-08T03:14:25;95013.19;;;3.97;100.00
6134;BME280;3098;42.678;23.364;2023-04-08T03:16:52;94956.53;;;3.66;100.00
6134;BME280;3098;42.678;23.364;2023-04-08T03:19:19;95036.81;;;4.23;100.00
6134;BME280;3098;42.678;23.364;2023-04-08T03:21:46;94918.00;;;3.31;100.00
6134;BME280;3098;42.678;23.364;2023-04-08T03:24:15;95011.34;;;3.93;100.00
6134;BME280;3098;42.678;23.364;2023-04-08T03:26:42;94926.66;;;3.37;100.00
6134;BME280;3098;42.678;23.364;2023-04-08T03:29:09;95005.06;;;3.94;100.00
6134;BME280;3098;42.678;23.364;2023-04-08T03:31:36;94979.09;;;3.87;100.00
6134;BME280;3098;42.678;23.364;2023-04-08T03:34:03;95037.31;;;4.25;100.00
6134;BME280;3098;42.678;23.364;2023-04-08T03:36:31;95041.28;;;4.17;100.00
6134;BME280;3098;42.678;23.364;2023-04-08T03:38:58;95031.03;;;4.11;100.00
6134;BME280;3098;42.678;23.364;2023-04-08T03:41:26;95038.91;;;4.21;100.00
6134;BME280;3098;42.678;23.364;2023-04-08T03:43:55;95000.34;;;3.96;100.00
6134;BME280;3098;42.678;23.364;2023-04-08T03:46:21;95039.69;;;4.26;100.00
6134;BME280;3098;42.678;23.364;2023-04-08T03:48:49;95028.94;;;4.07;100.00
6134;BME280;3098;42.678;23.364;2023-04-08T03:51:16;95036.53;;;4.04;100.00
6134;BME280;3098;42.678;23.364;2023-04-08T03:53:43;95047.28;;;3.97;100.00
6134;BME280;3098;42.678;23.364;2023-04-08T03:56:10;95007.16;;;3.82;100.00
6134;BME280;3098;42.678;23.364;2023-04-08T03:58:38;94870.78;;;3.01;100.00
6134;BME280;3098;42.678;23.364;2023-04-08T04:01:05;95038.41;;;4.09;100.00
6134;BME280;3098;42.678;23.364;2023-04-08T04:03:32;95002.97;;;3.86;100.00
6134;BME280;3098;42.678;23.364;2023-04-08T04:05:59;94971.50;;;3.71;100.00
6134;BME280;3098;42.678;23.364;2023-04-08T04:08:26;95002.97;;;3.96;100.00
6134;BME280;3098;42.678;23.364;2023-04-08T04:10:52;94994.03;;;3.82;100.00
6134;BME280;3098;42.678;23.364;2023-04-08T04:13:20;95029.97;;;4.06;100.00
6134;BME280;3098;42.678;23.364;2023-04-08T04:15:49;95033.91;;;4.09;100.00
6134;BME280;3098;42.678;23.364;2023-04-08T04:18:16;95040.47;;;4.12;100.00
6134;BME280;3098;42.678;23.364;2023-04-08T04:20:43;95035.78;;;4.09;100.00
6134;BME280;3098;42.678;23.364;2023-04-08T04:23:11;94943.69;;;3.49;100.00
6134;BME280;3098;42.678;23.364;2023-04-08T04:25:40;94861.88;;;2.92;100.00
6134;BME280;3098;42.678;23.364;2023-04-08T04:28:07;95027.91;;;4.09;100.00
6134;BME280;3098;42.678;23.364;2023-04-08T04:30:35;94976.47;;;3.72;100.00
6134;BME280;3098;42.678;23.364;2023-04-08T04:33:04;94976.72;;;3.71;100.00
6134;BME280;3098;42.678;23.364;2023-04-08T04:35:31;95049.41;;;4.21;100.00
6134;BME280;3098;42.678;23.364;2023-04-08T04:37:58;94963.88;;;3.74;100.00
6134;BME280;3098;42.678;23.364;2023-04-08T04:40:26;95022.38;;;4.10;100.00
6134;BME280;3098;42.678;23.364;2023-04-08T04:42:53;95056.47;;;4.30;100.00
6134;BME280;3098;42.678;23.364;2023-04-08T04:45:20;95052.00;;;4.36;99.45
6134;BME280;3098;42.678;23.364;2023-04-08T04:47:47;95043.38;;;4.25;99.42
6134;BME280;3098;42.678;23.364;2023-04-08T04:50:15;95049.13;;;4.32;99.27
6134;BME280;3098;42.678;23.364;2023-04-08T04:52:42;95042.28;;;4.41;99.20
6134;BME280;3098;42.678;23.364;2023-04-08T04:55:09;94905.16;;;3.45;97.91
6134;BME280;3098;42.678;23.364;2023-04-08T04:57:36;95034.69;;;4.30;97.00
6134;BME280;3098;42.678;23.364;2023-04-08T05:00:04;95044.94;;;4.36;96.62
6134;BME280;3098;42.678;23.364;2023-04-08T05:02:33;95035.47;;;4.35;96.02
6134;BME280;3098;42.678;23.364;2023-04-08T05:05:00;95059.09;;;4.45;95.73
6134;BME280;3098;42.678;23.364;2023-04-08T05:07:28;95047.81;;;4.35;95.74
6134;BME280;3098;42.678;23.364;2023-04-08T05:09:55;94985.41;;;3.91;95.96
6134;BME280;3098;42.678;23.364;2023-04-08T05:12:22;95031.00;;;4.26;96.43
6134;BME280;3098;42.678;23.364;2023-04-08T05:14:50;95049.13;;;4.37;96.78
6134;BME280;3098;42.678;23.364;2023-04-08T05:17:17;95060.41;;;4.53;96.95
6134;BME280;3098;42.678;23.364;2023-04-08T05:19:44;95057.75;;;4.68;96.59
6134;BME280;3098;42.678;23.364;2023-04-08T05:22:11;94934.47;;;3.97;96.18
6134;BME280;3098;42.678;23.364;2023-04-08T05:24:39;95011.03;;;4.35;96.60
6134;BME280;3098;42.678;23.364;2023-04-08T05:27:06;95059.78;;;4.86;96.16
6134;BME280;3098;42.678;23.364;2023-04-08T05:29:33;95061.31;;;4.97;96.30
6134;BME280;3098;42.678;23.364;2023-04-08T05:32:00;94995.19;;;4.75;95.99
6134;BME280;3098;42.678;23.364;2023-04-08T05:34:27;94964.91;;;4.83;95.17
6134;BME280;3098;42.678;23.364;2023-04-08T05:36:56;95027.47;;;5.40;93.99
6134;BME280;3098;42.678;23.364;2023-04-08T05:39:23;95051.41;;;5.82;92.92
6134;BME280;3098;42.678;23.364;2023-04-08T05:41:52;95029.59;;;5.76;92.25
6134;BME280;3098;42.678;23.364;2023-04-08T05:44:19;95029.25;;;5.93;90.71
6134;BME280;3098;42.678;23.364;2023-04-08T05:46:45;94918.94;;;5.29;89.75
6134;BME280;3098;42.678;23.364;2023-04-08T05:49:12;95001.22;;;6.12;88.10
6134;BME280;3098;42.678;23.364;2023-04-08T05:51:40;94962.16;;;5.91;87.49
6134;BME280;3098;42.678;23.364;2023-04-08T05:54:07;95054.03;;;6.26;88.94
6134;BME280;3098;42.678;23.364;2023-04-08T05:56:34;95034.25;;;6.28;88.79
6134;BME280;3098;42.678;23.364;2023-04-08T05:59:03;95058.19;;;6.61;87.65
6134;BME280;3098;42.678;23.364;2023-04-08T06:01:30;95056.91;;;6.82;86.15
6134;BME280;3098;42.678;23.364;2023-04-08T06:03:58;95057.84;;;6.67;85.91
6134;BME280;3098;42.678;23.364;2023-04-08T06:06:25;95056.81;;;6.92;85.25
6134;BME280;3098;42.678;23.364;2023-04-08T06:08:51;95055.78;;;6.88;85.93
6134;BME280;3098;42.678;23.364;2023-04-08T06:11:18;95033.25;;;6.77;86.00
6134;BME280;3098;42.678;23.364;2023-04-08T06:13:45;95050.56;;;6.83;85.99
6134;BME280;3098;42.678;23.364;2023-04-08T06:16:15;95050.97;;;6.43;88.62
6134;BME280;3098;42.678;23.364;2023-04-08T06:18:43;95004.22;;;6.29;88.94
6134;BME280;3098;42.678;23.364;2023-04-08T06:21:10;95006.91;;;6.48;88.05
6134;BME280;3098;42.678;23.364;2023-04-08T06:23:37;94961.94;;;6.40;87.29
6134;BME280;3098;42.678;23.364;2023-04-08T06:26:04;95034.84;;;6.73;87.74
6134;BME280;3098;42.678;23.364;2023-04-08T06:28:33;95005.25;;;6.81;86.70
6134;BME280;3098;42.678;23.364;2023-04-08T06:31:00;95036.81;;;7.10;87.02
6134;BME280;3098;42.678;23.364;2023-04-08T06:33:28;95053.97;;;7.49;86.39
6134;BME280;3098;42.678;23.364;2023-04-08T06:36:03;95036.78;;;7.52;85.31
6134;BME280;3098;42.678;23.364;2023-04-08T06:38:30;94993.84;;;7.28;84.99
6134;BME280;3098;42.678;23.364;2023-04-08T06:41:01;95059.44;;;7.77;85.13
6134;BME280;3098;42.678;23.364;2023-04-08T06:43:30;95051.09;;;8.21;83.94
6134;BME280;3098;42.678;23.364;2023-04-08T06:45:57;95061.13;;;8.05;83.42
6134;BME280;3098;42.678;23.364;2023-04-08T06:48:24;95035.47;;;7.73;83.73
6134;BME280;3098;42.678;23.364;2023-04-08T06:50:54;95065.22;;;7.97;84.69
6134;BME280;3098;42.678;23.364;2023-04-08T06:53:22;94989.88;;;7.49;85.28
6134;BME280;3098;42.678;23.364;2023-04-08T06:55:51;94999.09;;;7.51;84.31
6134;BME280;3098;42.678;23.364;2023-04-08T06:58:18;95016.63;;;7.61;85.92
6134;BME280;3098;42.678;23.364;2023-04-08T07:00:45;95054.63;;;7.41;88.00
6134;BME280;3098;42.678;23.364;2023-04-08T07:03:12;94854.69;;;6.21;88.79
6134;BME280;3098;42.678;23.364;2023-04-08T07:05:39;95032.22;;;7.39;88.31
6134;BME280;3098;42.678;23.364;2023-04-08T07:08:09;95052.13;;;7.50;89.79
6134;BME280;3098;42.678;23.364;2023-04-08T07:10:36;95060.66;;;8.03;90.69
6134;BME280;3098;42.678;23.364;2023-04-08T07:13:03;94987.53;;;7.66;88.81
6134;BME280;3098;42.678;23.364;2023-04-08T07:15:31;94985.19;;;7.97;86.95
6134;BME280;3098;42.678;23.364;2023-04-08T07:17:58;94980.63;;;8.02;84.13
6134;BME280;3098;42.678;23.364;2023-04-08T07:20:25;95072.63;;;8.79;82.13
6134;BME280;3098;42.678;23.364;2023-04-08T07:22:52;95074.91;;;8.85;81.35
6134;BME280;3098;42.678;23.364;2023-04-08T07:25:20;95071.06;;;8.78;80.91
6134;BME280;3098;42.678;23.364;2023-04-08T07:27:48;95069.75;;;8.61;81.79
6134;BME280;3098;42.678;23.364;2023-04-08T07:30:17;94981.41;;;8.35;82.19
6134;BME280;3098;42.678;23.364;2023-04-08T07:32:44;94982.72;;;8.19;81.30
6134;BME280;3098;42.678;23.364;2023-04-08T07:35:12;95082.56;;;9.14;80.53
6134;BME280;3098;42.678;23.364;2023-04-08T07:37:39;95085.28;;;8.95;81.22
6134;BME280;3098;42.678;23.364;2023-04-08T07:40:07;95078.84;;;9.15;79.30
6134;BME280;3098;42.678;23.364;2023-04-08T07:42:36;95004.34;;;8.67;80.19
6134;BME280;3098;42.678;23.364;2023-04-08T07:45:03;95095.56;;;9.65;78.03
6134;BME280;3098;42.678;23.364;2023-04-08T07:47:30;95087.00;;;9.95;78.33
6134;BME280;3098;42.678;23.364;2023-04-08T07:49:57;95063.75;;;9.29;79.22
6134;BME280;3098;42.678;23.364;2023-04-08T07:52:25;95090.06;;;9.75;78.82
6134;BME280;3098;42.678;23.364;2023-04-08T07:54:52;95090.75;;;10.30;75.19
6134;BME280;3098;42.678;23.364;2023-04-08T07:57:19;95028.41;;;10.19;72.97
6134;BME280;3098;42.678;23.364;2023-04-08T07:59:48;95090.06;;;10.11;73.59
6134;BME280;3098;42.678;23.364;2023-04-08T08:02:15;95050.03;;;10.12;73.30
6134;BME280;3098;42.678;23.364;2023-04-08T08:04:42;95050.69;;;9.82;73.45
6134;BME280;3098;42.678;23.364;2023-04-08T08:07:10;95098.00;;;9.89;74.80
6134;BME280;3098;42.678;23.364;2023-04-08T08:09:37;95075.91;;;10.51;74.64
6134;BME280;3098;42.678;23.364;2023-04-08T08:12:04;95048.91;;;11.11;76.77
6134;BME280;3098;42.678;23.364;2023-04-08T08:14:31;95095.50;;;11.73;69.28
6134;BME280;3098;42.678;23.364;2023-04-08T08:16:59;95082.09;;;11.95;64.47
6134;BME280;3098;42.678;23.364;2023-04-08T08:19:26;95099.75;;;11.74;63.40
6134;BME280;3098;42.678;23.364;2023-04-08T08:21:53;95076.00;;;11.38;66.57
6134;BME280;3098;42.678;23.364;2023-04-08T08:24:20;95104.94;;;11.48;64.43
6134;BME280;3098;42.678;23.364;2023-04-08T08:26:47;95077.25;;;12.32;61.13
6134;BME280;3098;42.678;23.364;2023-04-08T08:29:14;95052.25;;;13.05;57.54
6134;BME280;3098;42.678;23.364;2023-04-08T08:31:41;95048.28;;;13.49;56.12
6134;BME280;3098;42.678;23.364;2023-04-08T08:34:10;95103.09;;;12.14;59.48
6134;BME280;3098;42.678;23.364;2023-04-08T08:36:37;95114.94;;;10.15;69.02
6134;BME280;3098;42.678;23.364;2023-04-08T08:39:04;95068.72;;;10.07;70.74
6134;BME280;3098;42.678;23.364;2023-04-08T08:41:34;95055.31;;;10.26;68.84
6134;BME280;3098;42.678;23.364;2023-04-08T08:44:04;95052.91;;;10.69;68.38
6134;BME280;3098;42.678;23.364;2023-04-08T08:46:33;94969.16;;;10.15;65.78
6134;BME280;3098;42.678;23.364;2023-04-08T08:49:00;95113.88;;;10.60;68.74
6134;BME280;3098;42.678;23.364;2023-04-08T08:51:30;94925.41;;;8.88;70.43
6134;BME280;3098;42.678;23.364;2023-04-08T08:54:01;95102.63;;;9.83;72.23
6134;BME280;3098;42.678;23.364;2023-04-08T08:56:29;94944.59;;;8.39;74.48
6134;BME280;3098;42.678;23.364;2023-04-08T08:58:55;95104.72;;;9.32;76.19
6134;BME280;3098;42.678;23.364;2023-04-08T09:01:33;95094.38;;;9.71;74.81
6134;BME280;3098;42.678;23.364;2023-04-08T09:04:11;95119.16;;;10.02;73.13
6134;BME280;3098;42.678;23.364;2023-04-08T09:06:41;95116.22;;;10.04;72.74
6134;BME280;3098;42.678;23.364;2023-04-08T09:09:08;95112.66;;;10.08;72.75
6134;BME280;3098;42.678;23.364;2023-04-08T09:11:36;95120.91;;;10.43;72.03
6134;BME280;3098;42.678;23.364;2023-04-08T09:14:04;95066.81;;;10.21;72.53
6134;BME280;3098;42.678;23.364;2023-04-08T09:16:32;94979.97;;;9.82;71.01
6134;BME280;3098;42.678;23.364;2023-04-08T09:19:09;95073.81;;;10.70;69.94
6134;BME280;3098;42.678;23.364;2023-04-08T09:21:37;95051.41;;;11.16;66.18
6134;BME280;3098;42.678;23.364;2023-04-08T09:24:07;95104.34;;;11.51;65.69
6134;BME280;3098;42.678;23.364;2023-04-08T09:26:36;95001.94;;;10.80;64.11
6134;BME280;3098;42.678;23.364;2023-04-08T09:29:06;95069.13;;;11.29;65.71
6134;BME280;3098;42.678;23.364;2023-04-08T09:31:35;95077.75;;;11.43;62.43
6134;BME280;3098;42.678;23.364;2023-04-08T09:34:09;95102.47;;;12.26;61.09
6134;BME280;3098;42.678;23.364;2023-04-08T09:36:37;95096.66;;;12.24;59.29
6134;BME280;3098;42.678;23.364;2023-04-08T09:39:05;95096.19;;;11.48;62.75
6134;BME280;3098;42.678;23.364;2023-04-08T09:41:35;95093.53;;;12.04;61.65
6134;BME280;3098;42.678;23.364;2023-04-08T09:44:04;95034.25;;;11.22;63.09
6134;BME280;3098;42.678;23.364;2023-04-08T09:46:38;95098.03;;;11.87;63.39
6134;BME280;3098;42.678;23.364;2023-04-08T09:49:10;95089.75;;;11.80;62.41
6134;BME280;3098;42.678;23.364;2023-04-08T09:51:40;95101.28;;;12.95;58.43
6134;BME280;3098;42.678;23.364;2023-04-08T09:54:13;95104.22;;;13.57;54.95
6134;BME280;3098;42.678;23.364;2023-04-08T09:56:46;94945.03;;;13.25;50.98
6134;BME280;3098;42.678;23.364;2023-04-08T09:59:16;95078.53;;;13.15;53.84
6134;BME280;3098;42.678;23.364;2023-04-08T10:01:51;94904.38;;;10.69;60.02
6134;BME280;3098;42.678;23.364;2023-04-08T10:04:20;94928.19;;;12.66;54.32
6134;BME280;3098;42.678;23.364;2023-04-08T10:06:57;94960.47;;;13.11;52.52
6134;BME280;3098;42.678;23.364;2023-04-08T10:09:28;95043.81;;;12.86;54.46
6134;BME280;3098;42.678;23.364;2023-04-08T10:11:57;95068.81;;;13.19;53.59
6134;BME280;3098;42.678;23.364;2023-04-08T10:14:25;94935.59;;;10.72;60.90
6134;BME280;3098;42.678;23.364;2023-04-08T10:17:24;94943.94;;;11.05;62.61
6134;BME280;3098;42.678;23.364;2023-04-08T10:19:53;94975.16;;;11.98;58.02
6134;BME280;3098;42.678;23.364;2023-04-08T10:22:45;95067.44;;;13.13;53.73
6134;BME280;3098;42.678;23.364;2023-04-08T10:25:27;95043.88;;;12.68;54.57
6134;BME280;3098;42.678;23.364;2023-04-08T10:27:56;94980.75;;;11.54;58.89
6134;BME280;3098;42.678;23.364;2023-04-08T10:30:43;95015.88;;;11.42;59.54
6134;BME280;3098;42.678;23.364;2023-04-08T10:33:11;95065.34;;;11.86;59.15
6134;BME280;3098;42.678;23.364;2023-04-08T10:35:41;94940.41;;;11.18;59.51
6134;BME280;3098;42.678;23.364;2023-04-08T10:38:11;95035.03;;;11.87;59.58
6134;BME280;3098;42.678;23.364;2023-04-08T10:40:39;95057.25;;;11.91;58.31
6134;BME280;3098;42.678;23.364;2023-04-08T10:43:09;95053.78;;;11.74;60.43
6134;BME280;3098;42.678;23.364;2023-04-08T10:45:36;95005.53;;;10.84;63.62
6134;BME280;3098;42.678;23.364;2023-04-08T10:48:13;94963.22;;;10.79;62.63
6134;BME280;3098;42.678;23.364;2023-04-08T10:50:42;95042.53;;;11.77;59.96
6134;BME280;3098;42.678;23.364;2023-04-08T10:53:10;95033.47;;;11.95;58.33
6134;BME280;3098;42.678;23.364;2023-04-08T10:55:38;95013.47;;;11.97;57.31
6134;BME280;3098;42.678;23.364;2023-04-08T10:58:09;95032.66;;;12.46;56.12
6134;BME280;3098;42.678;23.364;2023-04-08T11:00:38;94960.59;;;12.13;54.67
6134;BME280;3098;42.678;23.364;2023-04-08T11:03:07;94869.53;;;12.25;52.51
6134;BME280;3098;42.678;23.364;2023-04-08T11:05:34;95024.81;;;13.71;51.79
6134;BME280;3098;42.678;23.364;2023-04-08T11:08:03;94849.66;;;13.18;48.47
6134;BME280;3098;42.678;23.364;2023-04-08T11:10:32;95003.94;;;13.23;51.01
6134;BME280;3098;42.678;23.364;2023-04-08T11:13:05;94931.09;;;11.72;55.29
6134;BME280;3098;42.678;23.364;2023-04-08T11:15:35;95022.06;;;11.94;54.97
6134;BME280;3098;42.678;23.364;2023-04-08T11:18:04;94951.19;;;11.55;55.43
6134;BME280;3098;42.678;23.364;2023-04-08T11:20:32;95017.47;;;12.46;52.43
6134;BME280;3098;42.678;23.364;2023-04-08T11:23:00;95024.00;;;12.66;51.57
6134;BME280;3098;42.678;23.364;2023-04-08T11:25:28;94884.84;;;12.28;50.27
6134;BME280;3098;42.678;23.364;2023-04-08T11:27:56;94970.28;;;12.73;49.86
6134;BME280;3098;42.678;23.364;2023-04-08T11:30:24;94965.50;;;12.49;50.42
6134;BME280;3098;42.678;23.364;2023-04-08T11:32:54;94733.81;;;11.11;50.17
6134;BME280;3098;42.678;23.364;2023-04-08T11:35:21;94968.94;;;12.96;50.33
6134;BME280;3098;42.678;23.364;2023-04-08T11:37:48;94838.88;;;12.27;49.04
6134;BME280;3098;42.678;23.364;2023-04-08T11:40:19;94939.63;;;13.54;47.40
6134;BME280;3098;42.678;23.364;2023-04-08T11:42:48;94988.72;;;13.95;47.84
6134;BME280;3098;42.678;23.364;2023-04-08T11:45:18;94986.25;;;13.69;47.55
6134;BME280;3098;42.678;23.364;2023-04-08T11:47:47;94994.44;;;14.05;47.33
6134;BME280;3098;42.678;23.364;2023-04-08T11:50:23;94935.41;;;13.95;46.17
6134;BME280;3098;42.678;23.364;2023-04-08T11:52:51;94901.81;;;13.81;46.30
6134;BME280;3098;42.678;23.364;2023-04-08T11:55:24;94986.44;;;14.71;44.15
6134;BME280;3098;42.678;23.364;2023-04-08T11:57:52;94893.81;;;13.81;43.39
6134;BME280;3098;42.678;23.364;2023-04-08T12:00:20;94953.03;;;13.46;45.35
6134;BME280;3098;42.678;23.364;2023-04-08T12:02:47;94947.84;;;12.91;46.92
6134;BME280;3098;42.678;23.364;2023-04-08T12:05:16;94971.13;;;13.32;47.96
6134;BME280;3098;42.678;23.364;2023-04-08T12:07:44;94977.66;;;13.63;47.21
6134;BME280;3098;42.678;23.364;2023-04-08T12:10:11;94972.19;;;13.60;47.97
6134;BME280;3098;42.678;23.364;2023-04-08T12:12:39;94974.00;;;13.27;47.38
6134;BME280;3098;42.678;23.364;2023-04-08T12:15:07;94737.69;;;11.94;47.72
6134;BME280;3098;42.678;23.364;2023-04-08T12:17:35;94787.00;;;11.75;48.05
6134;BME280;3098;42.678;23.364;2023-04-08T12:20:03;94828.91;;;12.16;48.56
6134;BME280;3098;42.678;23.364;2023-04-08T12:22:30;94935.66;;;13.19;48.51
6134;BME280;3098;42.678;23.364;2023-04-08T12:24:59;94896.28;;;12.95;48.02
6134;BME280;3098;42.678;23.364;2023-04-08T12:27:27;94959.69;;;13.31;46.18
6134;BME280;3098;42.678;23.364;2023-04-08T12:29:54;94877.44;;;12.42;46.45
6134;BME280;3098;42.678;23.364;2023-04-08T12:32:23;94907.97;;;12.36;47.64
6134;BME280;3098;42.678;23.364;2023-04-08T12:34:50;94916.47;;;12.21;48.87
6134;BME280;3098;42.678;23.364;2023-04-08T12:37:17;94962.91;;;12.23;51.04
6134;BME280;3098;42.678;23.364;2023-04-08T12:39:45;94839.50;;;10.92;53.24
6134;BME280;3098;42.678;23.364;2023-04-08T12:42:13;94846.88;;;11.21;52.95
6134;BME280;3098;42.678;23.364;2023-04-08T12:44:41;94943.59;;;11.71;52.84
6134;BME280;3098;42.678;23.364;2023-04-08T12:47:08;94917.63;;;11.42;54.44
6134;BME280;3098;42.678;23.364;2023-04-08T12:49:35;94917.41;;;11.13;57.50
6134;BME280;3098;42.678;23.364;2023-04-08T12:52:02;94940.72;;;11.25;59.52
6134;BME280;3098;42.678;23.364;2023-04-08T12:54:29;94904.25;;;10.82;61.95
6134;BME280;3098;42.678;23.364;2023-04-08T12:56:57;94947.41;;;11.14;62.25
6134;BME280;3098;42.678;23.364;2023-04-08T12:59:27;94890.84;;;10.39;62.95
6134;BME280;3098;42.678;23.364;2023-04-08T13:01:54;94946.56;;;10.87;63.16
6134;BME280;3098;42.678;23.364;2023-04-08T13:04:21;94869.03;;;10.43;62.91
6134;BME280;3098;42.678;23.364;2023-04-08T13:06:48;94750.31;;;9.52;61.84
6134;BME280;3098;42.678;23.364;2023-04-08T13:09:16;94802.16;;;9.75;62.74
6134;BME280;3098;42.678;23.364;2023-04-08T13:11:43;94933.63;;;10.94;61.37
6134;BME280;3098;42.678;23.364;2023-04-08T13:14:11;94879.44;;;10.78;61.72
6134;BME280;3098;42.678;23.364;2023-04-08T13:16:40;94895.09;;;11.06;60.98
6134;BME280;3098;42.678;23.364;2023-04-08T13:19:06;94942.94;;;11.57;60.67
6134;BME280;3098;42.678;23.364;2023-04-08T13:21:34;94863.25;;;11.06;58.31